sensor_id;sensor_type;location;lat;lon;timestamp;P1;durP1;ratioP1;P2;durP2;ratioP2
41466;SDS011;27205;53.690;19.948;2022-09-09T00:04:03;2.40;;;1.40;;
41466;SDS011;27205;53.690;19.948;2022-09-09T00:09:16;5.60;;;2.10;;
41466;SDS011;27205;53.690;19.948;2022-09-09T00:14:39;3.30;;;1.50;;
41466;SDS011;27205;53.690;19.948;2022-09-09T00:25:31;1.80;;;1.10;;
41466;SDS011;27205;53.690;19.948;2022-09-09T00:30:42;2.40;;;1.50;;
41466;SDS011;27205;53.690;19.948;2022-09-09T00:35:53;1.90;;;1.10;;
41466;SDS011;27205;53.690;19.948;2022-09-09T00:46:24;6.90;;;1.40;;
41466;SDS011;27205;53.690;19.948;2022-09-09T00:51:35;3.30;;;1.10;;
41466;SDS011;27205;53.690;19.948;2022-09-09T01:02:19;5.30;;;1.40;;
41466;SDS011;27205;53.690;19.948;2022-09-09T01:07:33;1.70;;;1.20;;
41466;SDS011;27205;53.690;19.948;2022-09-09T01:12:41;2.80;;;1.30;;
41466;SDS011;27205;53.690;19.948;2022-09-09T01:17:49;1.70;;;1.30;;
41466;SDS011;27205;53.690;19.948;2022-09-09T01:28:35;1.60;;;1.20;;
41466;SDS011;27205;53.690;19.948;2022-09-09T01:33:39;3.30;;;1.10;;
41466;SDS011;27205;53.690;19.948;2022-09-09T01:38:43;2.00;;;1.00;;
41466;SDS011;27205;53.690;19.948;2022-09-09T01:43:46;4.00;;;1.50;;
41466;SDS011;27205;53.690;19.948;2022-09-09T01:48:51;6.00;;;1.60;;
41466;SDS011;27205;53.690;19.948;2022-09-09T01:53:56;4.50;;;1.30;;
41466;SDS011;27205;53.690;19.948;2022-09-09T01:59:03;2.90;;;1.10;;
41466;SDS011;27205;53.690;19.948;2022-09-09T02:04:09;4.00;;;1.20;;
41466;SDS011;27205;53.690;19.948;2022-09-09T02:09:37;1.80;;;0.90;;
41466;SDS011;27205;53.690;19.948;2022-09-09T02:15:07;3.10;;;1.10;;
41466;SDS011;27205;53.690;19.948;2022-09-09T02:20:13;2.80;;;1.40;;
41466;SDS011;27205;53.690;19.948;2022-09-09T02:25:18;1.00;;;0.90;;
41466;SDS011;27205;53.690;19.948;2022-09-09T02:30:25;1.30;;;1.20;;
41466;SDS011;27205;53.690;19.948;2022-09-09T02:35:31;8.50;;;1.90;;
41466;SDS011;27205;53.690;19.948;2022-09-09T02:40:40;1.70;;;1.10;;
41466;SDS011;27205;53.690;19.948;2022-09-09T02:45:49;3.30;;;1.50;;
41466;SDS011;27205;53.690;19.948;2022-09-09T02:56:44;2.50;;;1.10;;
41466;SDS011;27205;53.690;19.948;2022-09-09T03:01:53;2.70;;;1.30;;
41466;SDS011;27205;53.690;19.948;2022-09-09T03:06:57;3.50;;;1.60;;
41466;SDS011;27205;53.690;19.948;2022-09-09T03:12:01;3.70;;;1.50;;
41466;SDS011;27205;53.690;19.948;2022-09-09T03:17:06;3.00;;;1.80;;
41466;SDS011;27205;53.690;19.948;2022-09-09T03:22:12;3.50;;;1.40;;
41466;SDS011;27205;53.690;19.948;2022-09-09T03:27:16;2.60;;;1.60;;
41466;SDS011;27205;53.690;19.948;2022-09-09T03:32:20;1.80;;;1.40;;
41466;SDS011;27205;53.690;19.948;2022-09-09T03:37:25;1.60;;;1.10;;
41466;SDS011;27205;53.690;19.948;2022-09-09T03:42:29;2.60;;;2.00;;
41466;SDS011;27205;53.690;19.948;2022-09-09T03:47:33;4.10;;;2.80;;
41466;SDS011;27205;53.690;19.948;2022-09-09T03:52:37;1.40;;;1.30;;
41466;SDS011;27205;53.690;19.948;2022-09-09T03:57:41;2.30;;;1.50;;
41466;SDS011;27205;53.690;19.948;2022-09-09T04:02:45;2.10;;;1.10;;
41466;SDS011;27205;53.690;19.948;2022-09-09T04:07:48;4.40;;;2.00;;
41466;SDS011;27205;53.690;19.948;2022-09-09T04:12:52;2.00;;;1.70;;
41466;SDS011;27205;53.690;19.948;2022-09-09T04:17:55;1.70;;;1.30;;
41466;SDS011;27205;53.690;19.948;2022-09-09T04:22:58;2.10;;;1.60;;
41466;SDS011;27205;53.690;19.948;2022-09-09T04:28:02;3.90;;;1.90;;
41466;SDS011;27205;53.690;19.948;2022-09-09T04:33:06;2.90;;;1.60;;
41466;SDS011;27205;53.690;19.948;2022-09-09T04:38:10;1.50;;;1.30;;
41466;SDS011;27205;53.690;19.948;2022-09-09T04:43:13;2.90;;;1.80;;
41466;SDS011;27205;53.690;19.948;2022-09-09T04:48:17;3.10;;;2.00;;
41466;SDS011;27205;53.690;19.948;2022-09-09T04:53:22;1.90;;;1.70;;
41466;SDS011;27205;53.690;19.948;2022-09-09T04:58:25;2.50;;;1.60;;
41466;SDS011;27205;53.690;19.948;2022-09-09T05:03:29;1.60;;;1.40;;
41466;SDS011;27205;53.690;19.948;2022-09-09T05:08:32;6.90;;;2.50;;
41466;SDS011;27205;53.690;19.948;2022-09-09T05:13:35;11.30;;;1.70;;
41466;SDS011;27205;53.690;19.948;2022-09-09T05:18:43;3.00;;;1.80;;
41466;SDS011;27205;53.690;19.948;2022-09-09T05:23:47;1.80;;;1.50;;
41466;SDS011;27205;53.690;19.948;2022-09-09T05:28:50;3.20;;;2.10;;
41466;SDS011;27205;53.690;19.948;2022-09-09T05:33:53;1.80;;;1.60;;
41466;SDS011;27205;53.690;19.948;2022-09-09T05:38:57;2.90;;;2.00;;
41466;SDS011;27205;53.690;19.948;2022-09-09T05:44:00;2.60;;;1.60;;
41466;SDS011;27205;53.690;19.948;2022-09-09T05:49:04;2.10;;;1.90;;
41466;SDS011;27205;53.690;19.948;2022-09-09T05:59:11;2.10;;;1.90;;
41466;SDS011;27205;53.690;19.948;2022-09-09T06:04:15;3.10;;;1.80;;
41466;SDS011;27205;53.690;19.948;2022-09-09T06:09:19;1.70;;;1.40;;
41466;SDS011;27205;53.690;19.948;2022-09-09T06:14:22;2.20;;;1.50;;
41466;SDS011;27205;53.690;19.948;2022-09-09T06:19:25;2.10;;;1.80;;
41466;SDS011;27205;53.690;19.948;2022-09-09T06:24:29;2.60;;;1.60;;
41466;SDS011;27205;53.690;19.948;2022-09-09T06:29:33;2.10;;;1.90;;
41466;SDS011;27205;53.690;19.948;2022-09-09T06:34:36;1.70;;;1.50;;
41466;SDS011;27205;53.690;19.948;2022-09-09T06:39:39;2.00;;;1.60;;
41466;SDS011;27205;53.690;19.948;2022-09-09T06:44:43;1.60;;;1.50;;
41466;SDS011;27205;53.690;19.948;2022-09-09T06:49:46;2.10;;;1.90;;
41466;SDS011;27205;53.690;19.948;2022-09-09T06:54:50;1.30;;;1.30;;
41466;SDS011;27205;53.690;19.948;2022-09-09T06:59:53;2.50;;;2.20;;
41466;SDS011;27205;53.690;19.948;2022-09-09T07:04:56;1.60;;;1.50;;
41466;SDS011;27205;53.690;19.948;2022-09-09T07:10:01;2.50;;;2.30;;
41466;SDS011;27205;53.690;19.948;2022-09-09T07:15:06;2.40;;;2.20;;
41466;SDS011;27205;53.690;19.948;2022-09-09T07:20:10;2.60;;;2.40;;
41466;SDS011;27205;53.690;19.948;2022-09-09T07:25:15;3.10;;;2.80;;
41466;SDS011;27205;53.690;19.948;2022-09-09T07:30:20;2.70;;;2.50;;
41466;SDS011;27205;53.690;19.948;2022-09-09T07:35:29;3.60;;;2.70;;
41466;SDS011;27205;53.690;19.948;2022-09-09T07:40:33;3.20;;;2.90;;
41466;SDS011;27205;53.690;19.948;2022-09-09T07:45:36;2.90;;;2.60;;
41466;SDS011;27205;53.690;19.948;2022-09-09T07:50:40;3.10;;;2.70;;
41466;SDS011;27205;53.690;19.948;2022-09-09T07:55:43;4.10;;;3.50;;
41466;SDS011;27205;53.690;19.948;2022-09-09T08:00:46;3.50;;;3.20;;
41466;SDS011;27205;53.690;19.948;2022-09-09T08:05:50;4.40;;;4.00;;
41466;SDS011;27205;53.690;19.948;2022-09-09T08:11:00;3.80;;;3.50;;
41466;SDS011;27205;53.690;19.948;2022-09-09T08:16:09;4.00;;;3.70;;
41466;SDS011;27205;53.690;19.948;2022-09-09T08:21:17;3.60;;;3.30;;
41466;SDS011;27205;53.690;19.948;2022-09-09T08:26:24;3.70;;;3.40;;
41466;SDS011;27205;53.690;19.948;2022-09-09T08:31:29;4.10;;;3.80;;
41466;SDS011;27205;53.690;19.948;2022-09-09T08:36:38;3.80;;;3.50;;
41466;SDS011;27205;53.690;19.948;2022-09-09T08:47:33;4.20;;;3.80;;
41466;SDS011;27205;53.690;19.948;2022-09-09T08:58:02;3.80;;;3.40;;
41466;SDS011;27205;53.690;19.948;2022-09-09T09:03:19;3.10;;;2.90;;
41466;SDS011;27205;53.690;19.948;2022-09-09T09:13:48;3.10;;;2.80;;
41466;SDS011;27205;53.690;19.948;2022-09-09T09:19:01;2.90;;;2.70;;
41466;SDS011;27205;53.690;19.948;2022-09-09T09:24:06;2.30;;;2.20;;
41466;SDS011;27205;53.690;19.948;2022-09-09T09:29:23;2.90;;;2.60;;
41466;SDS011;27205;53.690;19.948;2022-09-09T09:34:28;2.60;;;2.40;;
41466;SDS011;27205;53.690;19.948;2022-09-09T09:39:32;2.80;;;2.60;;
41466;SDS011;27205;53.690;19.948;2022-09-09T09:45:07;2.40;;;2.30;;
41466;SDS011;27205;53.690;19.948;2022-09-09T09:50:46;2.10;;;2.00;;
41466;SDS011;27205;53.690;19.948;2022-09-09T09:55:57;1.70;;;1.60;;
41466;SDS011;27205;53.690;19.948;2022-09-09T10:01:03;1.80;;;1.70;;
41466;SDS011;27205;53.690;19.948;2022-09-09T10:06:07;1.80;;;1.70;;
41466;SDS011;27205;53.690;19.948;2022-09-09T10:42:46;1.60;;;1.60;;
41466;SDS011;27205;53.690;19.948;2022-09-09T10:48:02;1.80;;;1.70;;
41466;SDS011;27205;53.690;19.948;2022-09-09T10:53:21;1.60;;;1.60;;
41466;SDS011;27205;53.690;19.948;2022-09-09T10:58:40;1.60;;;1.50;;
41466;SDS011;27205;53.690;19.948;2022-09-09T11:04:09;1.60;;;1.50;;
41466;SDS011;27205;53.690;19.948;2022-09-09T11:09:26;2.20;;;2.10;;
41466;SDS011;27205;53.690;19.948;2022-09-09T11:14:58;2.40;;;2.20;;
41466;SDS011;27205;53.690;19.948;2022-09-09T11:20:05;1.90;;;1.80;;
41466;SDS011;27205;53.690;19.948;2022-09-09T11:25:15;2.20;;;2.10;;
41466;SDS011;27205;53.690;19.948;2022-09-09T11:30:20;2.00;;;1.90;;
41466;SDS011;27205;53.690;19.948;2022-09-09T11:41:12;2.40;;;2.30;;
41466;SDS011;27205;53.690;19.948;2022-09-09T11:46:31;2.50;;;2.30;;
41466;SDS011;27205;53.690;19.948;2022-09-09T11:51:41;2.40;;;2.30;;
41466;SDS011;27205;53.690;19.948;2022-09-09T11:56:45;2.60;;;2.40;;
41466;SDS011;27205;53.690;19.948;2022-09-09T12:01:59;2.40;;;2.20;;
41466;SDS011;27205;53.690;19.948;2022-09-09T12:07:22;2.00;;;1.90;;
41466;SDS011;27205;53.690;19.948;2022-09-09T12:12:35;2.00;;;1.90;;
41466;SDS011;27205;53.690;19.948;2022-09-09T12:17:50;2.30;;;2.20;;
41466;SDS011;27205;53.690;19.948;2022-09-09T12:33:19;2.70;;;2.50;;
41466;SDS011;27205;53.690;19.948;2022-09-09T12:38:35;2.70;;;2.50;;
41466;SDS011;27205;53.690;19.948;2022-09-09T12:43:40;3.00;;;2.80;;
41466;SDS011;27205;53.690;19.948;2022-09-09T12:48:44;2.40;;;2.30;;
41466;SDS011;27205;53.690;19.948;2022-09-09T12:53:48;2.70;;;2.50;;
41466;SDS011;27205;53.690;19.948;2022-09-09T12:58:53;2.70;;;2.50;;
41466;SDS011;27205;53.690;19.948;2022-09-09T13:03:59;2.60;;;2.40;;
41466;SDS011;27205;53.690;19.948;2022-09-09T13:14:06;3.40;;;3.10;;
41466;SDS011;27205;53.690;19.948;2022-09-09T13:19:23;3.20;;;3.00;;
41466;SDS011;27205;53.690;19.948;2022-09-09T13:24:31;3.30;;;3.10;;
41466;SDS011;27205;53.690;19.948;2022-09-09T13:29:37;3.90;;;3.60;;
41466;SDS011;27205;53.690;19.948;2022-09-09T13:34:50;3.90;;;3.60;;
41466;SDS011;27205;53.690;19.948;2022-09-09T13:39:55;3.70;;;3.50;;
41466;SDS011;27205;53.690;19.948;2022-09-09T13:44:58;4.60;;;4.30;;
41466;SDS011;27205;53.690;19.948;2022-09-09T13:50:18;4.90;;;4.50;;
41466;SDS011;27205;53.690;19.948;2022-09-09T13:55:22;4.20;;;3.90;;
41466;SDS011;27205;53.690;19.948;2022-09-09T14:00:31;4.80;;;4.40;;
41466;SDS011;27205;53.690;19.948;2022-09-09T14:05:36;4.80;;;4.50;;
41466;SDS011;27205;53.690;19.948;2022-09-09T14:10:40;4.80;;;4.40;;
41466;SDS011;27205;53.690;19.948;2022-09-09T14:15:43;5.10;;;4.70;;
41466;SDS011;27205;53.690;19.948;2022-09-09T14:20:47;5.30;;;4.90;;
41466;SDS011;27205;53.690;19.948;2022-09-09T14:25:50;4.50;;;4.20;;
41466;SDS011;27205;53.690;19.948;2022-09-09T14:30:54;4.40;;;4.10;;
41466;SDS011;27205;53.690;19.948;2022-09-09T14:35:58;4.60;;;4.30;;
41466;SDS011;27205;53.690;19.948;2022-09-09T14:41:06;5.00;;;4.60;;
41466;SDS011;27205;53.690;19.948;2022-09-09T14:46:11;4.70;;;4.30;;
41466;SDS011;27205;53.690;19.948;2022-09-09T14:51:23;4.50;;;4.20;;
41466;SDS011;27205;53.690;19.948;2022-09-09T14:56:28;4.80;;;4.40;;
41466;SDS011;27205;53.690;19.948;2022-09-09T15:01:33;4.90;;;4.50;;
41466;SDS011;27205;53.690;19.948;2022-09-09T15:06:37;5.10;;;4.70;;
41466;SDS011;27205;53.690;19.948;2022-09-09T15:11:41;5.10;;;4.70;;
41466;SDS011;27205;53.690;19.948;2022-09-09T15:16:46;5.80;;;5.40;;
41466;SDS011;27205;53.690;19.948;2022-09-09T15:21:49;5.50;;;5.10;;
41466;SDS011;27205;53.690;19.948;2022-09-09T15:26:52;6.30;;;5.90;;
41466;SDS011;27205;53.690;19.948;2022-09-09T15:32:11;5.00;;;4.60;;
41466;SDS011;27205;53.690;19.948;2022-09-09T15:38:01;4.90;;;4.50;;
41466;SDS011;27205;53.690;19.948;2022-09-09T15:43:07;5.90;;;5.40;;
41466;SDS011;27205;53.690;19.948;2022-09-09T15:48:12;6.30;;;5.90;;
41466;SDS011;27205;53.690;19.948;2022-09-09T15:53:15;6.20;;;5.80;;
41466;SDS011;27205;53.690;19.948;2022-09-09T15:58:18;6.30;;;5.80;;
41466;SDS011;27205;53.690;19.948;2022-09-09T16:03:22;6.00;;;5.60;;
41466;SDS011;27205;53.690;19.948;2022-09-09T16:08:31;8.50;;;6.80;;
41466;SDS011;27205;53.690;19.948;2022-09-09T16:13:36;6.50;;;6.00;;
41466;SDS011;27205;53.690;19.948;2022-09-09T16:18:41;6.40;;;5.90;;
41466;SDS011;27205;53.690;19.948;2022-09-09T16:23:47;6.20;;;5.70;;
41466;SDS011;27205;53.690;19.948;2022-09-09T16:28:52;6.50;;;6.00;;
41466;SDS011;27205;53.690;19.948;2022-09-09T16:33:57;5.40;;;5.10;;
41466;SDS011;27205;53.690;19.948;2022-09-09T16:39:03;7.00;;;6.50;;
41466;SDS011;27205;53.690;19.948;2022-09-09T16:44:09;6.10;;;5.70;;
41466;SDS011;27205;53.690;19.948;2022-09-09T16:49:13;6.40;;;5.90;;
41466;SDS011;27205;53.690;19.948;2022-09-09T16:54:18;5.30;;;4.90;;
41466;SDS011;27205;53.690;19.948;2022-09-09T17:04:26;6.80;;;6.20;;
41466;SDS011;27205;53.690;19.948;2022-09-09T17:09:31;7.20;;;5.80;;
41466;SDS011;27205;53.690;19.948;2022-09-09T17:14:35;5.70;;;5.30;;
41466;SDS011;27205;53.690;19.948;2022-09-09T17:19:38;6.90;;;6.40;;
41466;SDS011;27205;53.690;19.948;2022-09-09T17:24:41;5.80;;;5.40;;
41466;SDS011;27205;53.690;19.948;2022-09-09T17:29:46;6.20;;;5.70;;
41466;SDS011;27205;53.690;19.948;2022-09-09T17:34:49;6.10;;;5.60;;
41466;SDS011;27205;53.690;19.948;2022-09-09T17:39:53;5.50;;;5.00;;
41466;SDS011;27205;53.690;19.948;2022-09-09T17:44:56;5.90;;;5.30;;
41466;SDS011;27205;53.690;19.948;2022-09-09T17:49:59;6.10;;;5.70;;
41466;SDS011;27205;53.690;19.948;2022-09-09T17:55:03;5.30;;;4.90;;
41466;SDS011;27205;53.690;19.948;2022-09-09T18:00:08;4.80;;;4.40;;
41466;SDS011;27205;53.690;19.948;2022-09-09T18:05:11;5.50;;;5.10;;
41466;SDS011;27205;53.690;19.948;2022-09-09T18:10:15;5.80;;;5.40;;
41466;SDS011;27205;53.690;19.948;2022-09-09T18:15:18;6.50;;;6.00;;
41466;SDS011;27205;53.690;19.948;2022-09-09T18:20:42;4.40;;;4.10;;
41466;SDS011;27205;53.690;19.948;2022-09-09T18:30:50;5.10;;;4.70;;
41466;SDS011;27205;53.690;19.948;2022-09-09T18:35:54;5.00;;;4.70;;
41466;SDS011;27205;53.690;19.948;2022-09-09T18:40:58;5.30;;;4.90;;
41466;SDS011;27205;53.690;19.948;2022-09-09T18:46:03;5.70;;;5.20;;
41466;SDS011;27205;53.690;19.948;2022-09-09T18:51:09;4.70;;;4.40;;
41466;SDS011;27205;53.690;19.948;2022-09-09T19:01:18;4.10;;;3.90;;
41466;SDS011;27205;53.690;19.948;2022-09-09T19:06:23;5.20;;;4.80;;
41466;SDS011;27205;53.690;19.948;2022-09-09T19:11:29;5.30;;;4.90;;
41466;SDS011;27205;53.690;19.948;2022-09-09T19:16:33;4.70;;;4.40;;
41466;SDS011;27205;53.690;19.948;2022-09-09T19:21:38;5.00;;;4.70;;
41466;SDS011;27205;53.690;19.948;2022-09-09T19:26:45;4.40;;;4.00;;
41466;SDS011;27205;53.690;19.948;2022-09-09T19:31:52;4.60;;;4.30;;
41466;SDS011;27205;53.690;19.948;2022-09-09T19:37:20;4.90;;;4.50;;
41466;SDS011;27205;53.690;19.948;2022-09-09T19:42:27;4.50;;;4.20;;
41466;SDS011;27205;53.690;19.948;2022-09-09T19:47:32;4.20;;;3.90;;
41466;SDS011;27205;53.690;19.948;2022-09-09T19:52:35;4.40;;;4.10;;
41466;SDS011;27205;53.690;19.948;2022-09-09T19:57:40;3.70;;;3.40;;
41466;SDS011;27205;53.690;19.948;2022-09-09T20:02:44;3.90;;;3.60;;
41466;SDS011;27205;53.690;19.948;2022-09-09T20:08:07;5.10;;;4.70;;
41466;SDS011;27205;53.690;19.948;2022-09-09T20:13:10;4.10;;;3.80;;
41466;SDS011;27205;53.690;19.948;2022-09-09T20:18:14;5.20;;;4.30;;
41466;SDS011;27205;53.690;19.948;2022-09-09T20:23:17;3.70;;;3.50;;
41466;SDS011;27205;53.690;19.948;2022-09-09T20:28:20;3.60;;;3.30;;
41466;SDS011;27205;53.690;19.948;2022-09-09T20:33:24;7.80;;;4.10;;
41466;SDS011;27205;53.690;19.948;2022-09-09T20:38:29;3.30;;;3.10;;
41466;SDS011;27205;53.690;19.948;2022-09-09T20:43:35;3.40;;;3.20;;
41466;SDS011;27205;53.690;19.948;2022-09-09T20:48:39;3.90;;;3.70;;
41466;SDS011;27205;53.690;19.948;2022-09-09T20:53:44;4.10;;;3.80;;
41466;SDS011;27205;53.690;19.948;2022-09-09T20:58:47;3.60;;;3.40;;
41466;SDS011;27205;53.690;19.948;2022-09-09T21:03:51;3.70;;;3.50;;
41466;SDS011;27205;53.690;19.948;2022-09-09T21:13:58;3.10;;;2.90;;
41466;SDS011;27205;53.690;19.948;2022-09-09T21:19:01;2.70;;;2.50;;
41466;SDS011;27205;53.690;19.948;2022-09-09T21:24:05;3.50;;;3.20;;
41466;SDS011;27205;53.690;19.948;2022-09-09T21:29:08;3.90;;;3.60;;
41466;SDS011;27205;53.690;19.948;2022-09-09T21:34:12;3.20;;;2.90;;
41466;SDS011;27205;53.690;19.948;2022-09-09T21:39:17;3.70;;;3.40;;
41466;SDS011;27205;53.690;19.948;2022-09-09T21:44:20;3.60;;;3.30;;
41466;SDS011;27205;53.690;19.948;2022-09-09T21:49:23;2.80;;;2.60;;
41466;SDS011;27205;53.690;19.948;2022-09-09T21:54:28;3.50;;;3.30;;
41466;SDS011;27205;53.690;19.948;2022-09-09T21:59:33;2.90;;;2.70;;
41466;SDS011;27205;53.690;19.948;2022-09-09T22:04:36;3.30;;;3.00;;
41466;SDS011;27205;53.690;19.948;2022-09-09T22:09:40;3.50;;;3.30;;
41466;SDS011;27205;53.690;19.948;2022-09-09T22:14:43;3.10;;;2.90;;
41466;SDS011;27205;53.690;19.948;2022-09-09T22:19:47;3.10;;;2.90;;
41466;SDS011;27205;53.690;19.948;2022-09-09T22:24:50;1.90;;;1.80;;
41466;SDS011;27205;53.690;19.948;2022-09-09T22:29:53;2.10;;;2.00;;
41466;SDS011;27205;53.690;19.948;2022-09-09T22:34:56;2.50;;;2.40;;
41466;SDS011;27205;53.690;19.948;2022-09-09T22:40:00;2.70;;;2.10;;
41466;SDS011;27205;53.690;19.948;2022-09-09T22:45:05;2.60;;;2.50;;
41466;SDS011;27205;53.690;19.948;2022-09-09T22:50:10;2.20;;;2.10;;
41466;SDS011;27205;53.690;19.948;2022-09-09T22:55:13;1.90;;;1.80;;
41466;SDS011;27205;53.690;19.948;2022-09-09T23:00:17;2.10;;;2.00;;
41466;SDS011;27205;53.690;19.948;2022-09-09T23:05:20;1.80;;;1.70;;
41466;SDS011;27205;53.690;19.948;2022-09-09T23:10:26;2.10;;;2.00;;
41466;SDS011;27205;53.690;19.948;2022-09-09T23:15:33;2.10;;;2.00;;
41466;SDS011;27205;53.690;19.948;2022-09-09T23:20:39;1.90;;;1.80;;
41466;SDS011;27205;53.690;19.948;2022-09-09T23:25:43;1.80;;;1.70;;
41466;SDS011;27205;53.690;19.948;2022-09-09T23:30:46;1.70;;;1.60;;
41466;SDS011;27205;53.690;19.948;2022-09-09T23:36:02;2.00;;;1.90;;
41466;SDS011;27205;53.690;19.948;2022-09-09T23:41:11;2.10;;;2.00;;
41466;SDS011;27205;53.690;19.948;2022-09-09T23:46:17;2.60;;;2.50;;
41466;SDS011;27205;53.690;19.948;2022-09-09T23:51:24;1.90;;;1.80;;
41466;SDS011;27205;53.690;19.948;2022-09-09T23:56:33;2.40;;;2.30;;
